Airfield :
LOGIN :

Register | Disclaimer

   EN    FR    IT 

 










Legend :    VFR   Marginal VFR   IFR   Intensive IFR   Very Intensive IFR
Visi :
Ceiling :
>= 8 km
>= 3000ft
5 to 8 km
1000 to 3000 ft
1500m to 5 km
500 to 1000 ft
800 to 1500m
200 to 500 ft
< 800m
< 200 ft
Symbols :   Thunderstorms  Fog  Heavy snow  Heavy precipitations  Wind > 20 kt
SIGMETs :     Misc.  Thunderstorms  Icing  Turbulence  Mountain Waves  Volcanic Ashes







- Airport Elevation : 306 ft
- IATA code : EMA
- Download approach charts


EGNX - Nottingham East Midlands

CURRENT METAR :
  • 221550Z 22007KT 9999 5000SW -SHRASN SCT007 BKN016 BKN031 02/01 Q0997

EXPIRED METARs :
  • 221520Z 22008KT 9999 VCSH FEW007 SCT015 BKN044 02/01 Q0997
  • 221450Z 23010KT 9999 VCSH FEW009 SCT015 BKN043 03/01 Q0998
  • 221420Z 23011KT 9999 -SHSN FEW012 SCT016 BKN042 03/M00 Q0998
  • 221350Z 23010KT 9999 FEW019CB SCT024 04/00 Q0998

TAF TAF EGNX
Valid from the 22 at 12:00 until the 23 at 12:00 UTC


221104Z 2212/2312 26010KT 9999 FEW025
TEMPO 2212/2221 3000 SHRASN BKN008
PROB30
TEMPO 2212/2224 1200 SHSN BKN004
BECMG 2307/2310 32008KT
ATIS : +44 1332 852 852 (ext 3201)
No reported NOTAMs for that airfield.
1 SIGMET reported for the London FIR (EGTT) :
 
Severe turbulence
EGTT SIGMET 02 VALID 221430/221830 EGRR
EGTT LONDON FIR SEV TURB FCST WI N5500 W00530 - N5500 W00400 - N5334 W00245 - N5124 W00151 - N5107 W00402 - N5355 W00530 - N5500 W00530 FL160/400 MOV E 15KT NC=



MET'MAP, your aeronautical weather chart ! - Copyright ORBIFLY December 2007 - Disclaimer

ORBIFLY MET'MAP TEAM :

Programming & Development : Alexandra Zaïnal
Concept & Development : Baudouin d'Aumeries
Co-Development & Prog : Marc-Olivier Méhu
Technical & hardware support : Manuel Goepfert

Contact : metmap@orbifly.com




SOURCES & CREDITS :

   NOAA